Terminal Aerodrome Forecast
Issued by NWS

Home | Current Version | Previous Version | Text Only | Print | Product List | Glossary On
Versions: 1 2 3 4 5 6 7 8 9 10 11 12 13 14 15 16 17
413
FTUS42 KTBW 180201 AAA
TAFPIE
TAF AMD
KPIE 180201Z 1802/1824 05011G15KT P6SM BKN020 OVC080
     FM181500 04009G15KT P6SM SCT025 BKN100=

USA.gov is the U.S. government's official web portal to all federal, state and local government web resources and services.